Time;durP1;ratioP1;P1;durP2;ratioP2;P2;SDS_P1;SDS_P2;PMS_P1;PMS_P2;Temp;Humidity;BMP_temperature;BMP_pressure;BME280_temperature;BME280_humidity;BME280_pressure;Samples;Min_cycle;Max_cycle;Signal;HPM_P1;HPM_P2
2021/07/02 00:00:08;;;;;;;1.90;1.45;;;;;;;16.19;67.99;95832.81;3579387;40;20045;-63
2021/07/02 00:02:36;;;;;;;1.10;1.00;;;;;;;16.14;66.69;95831.03;3585579;40;20058;-64
2021/07/02 00:05:05;;;;;;;1.25;0.98;;;;;;;16.13;68.05;95834.78;3577324;40;20098;-63
2021/07/02 00:07:33;;;;;;;1.60;1.50;;;;;;;16.04;69.08;95835.75;3586611;40;20398;-63
2021/07/02 00:10:01;;;;;;;1.20;1.10;;;;;;;16.04;68.94;95833.09;3577302;40;20313;-63
2021/07/02 00:12:29;;;;;;;1.73;1.52;;;;;;;16.04;68.59;95833.09;3577022;40;20062;-63
2021/07/02 00:14:56;;;;;;;3.22;1.73;;;;;;;16.04;68.41;95833.88;3577207;40;20055;-63
2021/07/02 00:17:24;;;;;;;2.22;1.40;;;;;;;16.05;68.49;95838.13;3576947;40;20516;-63
2021/07/02 00:19:52;;;;;;;1.50;1.40;;;;;;;15.95;69.55;95840.97;3586669;40;20070;-64
2021/07/02 00:22:20;;;;;;;2.55;1.30;;;;;;;15.87;70.25;95847.72;3576473;40;20044;-64
2021/07/02 00:24:47;;;;;;;2.17;1.85;;;;;;;15.75;70.87;95845.50;3576705;40;20468;-63
2021/07/02 00:27:15;;;;;;;2.28;1.70;;;;;;;15.75;70.66;95831.41;3575932;40;20058;-63
2021/07/02 00:29:43;;;;;;;4.55;1.95;;;;;;;15.67;73.13;95844.28;3586854;40;20080;-63
2021/07/02 00:32:11;;;;;;;3.47;1.73;;;;;;;15.60;73.43;95843.09;3586194;40;20322;-63
2021/07/02 00:34:39;;;;;;;2.60;2.20;;;;;;;15.61;74.73;95844.66;3576256;40;20094;-64
2021/07/02 00:37:07;;;;;;;2.70;2.15;;;;;;;15.56;75.38;95842.88;3586296;40;20052;-63
2021/07/02 00:39:35;;;;;;;2.50;2.30;;;;;;;15.54;76.24;95831.72;3586333;40;20044;-64
2021/07/02 00:42:04;;;;;;;2.70;1.88;;;;;;;15.59;77.09;95842.28;3585078;40;20052;-63
2021/07/02 00:44:44;;;;;;;2.72;2.53;;;;;;;15.60;77.02;95838.53;3585259;40;20321;-64
2021/07/02 00:47:14;;;;;;;3.40;2.55;;;;;;;15.59;77.11;95841.50;3576202;40;20075;-64
2021/07/02 00:49:42;;;;;;;2.38;2.28;;;;;;;15.53;78.02;95840.78;3572154;40;20270;-64
2021/07/02 00:52:13;;;;;;;11.98;2.90;;;;;;;15.46;78.19;95829.72;3579350;40;20048;-63
2021/07/02 00:54:43;;;;;;;2.13;1.92;;;;;;;15.41;77.54;95835.13;3577264;40;20049;-64
2021/07/02 00:57:12;;;;;;;2.95;2.33;;;;;;;15.46;78.93;95840.34;3566408;40;20045;-64
2021/07/02 00:59:41;;;;;;;2.65;2.40;;;;;;;15.41;79.38;95840.44;3575375;40;20290;-64
2021/07/02 01:02:14;;;;;;;2.60;2.13;;;;;;;15.35;77.74;95837.84;3575610;40;20389;-63
2021/07/02 01:04:43;;;;;;;2.45;2.25;;;;;;;15.37;77.43;95837.56;3575448;40;20060;-63
2021/07/02 01:07:12;;;;;;;11.85;2.33;;;;;;;15.38;77.22;95831.19;3574530;40;20074;-64
2021/07/02 01:09:44;;;;;;;3.40;2.72;;;;;;;15.35;77.36;95823.78;3584347;40;20077;-64
2021/07/02 01:12:14;;;;;;;2.10;2.00;;;;;;;15.39;76.98;95827.41;3577994;40;20635;-65
2021/07/02 01:14:44;;;;;;;1.95;1.80;;;;;;;15.35;77.88;95829.09;3582918;40;20056;-63
2021/07/02 01:17:13;;;;;;;2.80;1.98;;;;;;;15.29;77.75;95828.38;3574534;40;20404;-63
2021/07/02 01:19:49;;;;;;;2.53;1.90;;;;;;;15.25;77.88;95829.25;3574752;40;20045;-63
2021/07/02 01:22:28;;;;;;;3.47;2.22;;;;;;;15.22;78.70;95825.28;3569993;40;20037;-63
2021/07/02 01:24:58;;;;;;;2.03;1.92;;;;;;;15.13;80.62;95819.03;3584344;40;20263;-63
2021/07/02 01:27:28;;;;;;;3.78;2.15;;;;;;;15.05;80.57;95812.50;3582908;40;20283;-63
2021/07/02 01:30:00;;;;;;;1.90;1.75;;;;;;;14.96;81.25;95815.00;3583265;40;20041;-63
2021/07/02 01:32:28;;;;;;;2.83;2.63;;;;;;;15.00;82.59;95804.59;3578211;40;20055;-63
2021/07/02 01:34:56;;;;;;;5.88;2.63;;;;;;;14.99;80.88;95801.16;3575034;40;20056;-63
2021/07/02 01:37:24;;;;;;;2.47;2.38;;;;;;;14.99;82.44;95801.16;3574637;40;20060;-63
2021/07/02 01:39:54;;;;;;;3.60;2.88;;;;;;;14.98;81.42;95807.53;3582697;40;20052;-63
2021/07/02 01:42:23;;;;;;;1.83;1.73;;;;;;;15.02;80.56;95803.22;3582719;40;20048;-64
2021/07/02 01:44:52;;;;;;;2.25;2.15;;;;;;;15.06;79.54;95804.25;3566106;40;20048;-64
2021/07/02 01:47:20;;;;;;;2.58;2.25;;;;;;;15.11;79.17;95799.91;3584556;40;20044;-64
2021/07/02 01:49:48;;;;;;;2.40;2.20;;;;;;;15.05;81.03;95796.53;3574926;40;20057;-64
2021/07/02 01:52:17;;;;;;;2.60;2.40;;;;;;;14.94;80.01;95785.28;3583027;40;20324;-63
2021/07/02 01:54:47;;;;;;;2.50;2.30;;;;;;;14.90;80.73;95792.25;3575198;40;20054;-63
2021/07/02 01:57:24;;;;;;;4.07;3.28;;;;;;;14.85;81.10;95793.09;3575218;40;20298;-63
2021/07/02 01:59:54;;;;;;;2.65;2.28;;;;;;;14.83;81.61;95789.16;3575348;40;20305;-63
2021/07/02 02:02:23;;;;;;;4.30;3.55;;;;;;;14.79;81.79;95793.47;3575448;40;20056;-63
2021/07/02 02:04:58;;;;;;;3.28;2.95;;;;;;;14.75;82.99;95788.72;3579386;40;20040;-63
2021/07/02 02:07:26;;;;;;;3.25;2.88;;;;;;;14.72;81.33;95788.50;3573656;40;20048;-63
2021/07/02 02:09:54;;;;;;;3.95;2.88;;;;;;;14.66;82.96;95792.25;3575843;40;20052;-63
2021/07/02 02:12:23;;;;;;;3.95;3.05;;;;;;;14.65;82.15;95788.00;3584940;40;20092;-63
2021/07/02 02:14:53;;;;;;;3.45;3.20;;;;;;;14.67;83.72;95791.16;3575329;40;20056;-64
2021/07/02 02:17:22;;;;;;;3.70;3.38;;;;;;;14.60;82.87;95789.66;3566650;40;20041;-67
2021/07/02 02:19:52;;;;;;;2.35;2.25;;;;;;;14.62;81.92;95789.38;3578437;40;20054;-64
2021/07/02 02:22:19;;;;;;;4.90;2.30;;;;;;;14.67;81.75;95794.66;3583552;40;20046;-64
2021/07/02 02:24:48;;;;;;;2.70;2.38;;;;;;;14.70;80.69;95802.06;3574829;40;20074;-63
2021/07/02 02:27:18;;;;;;;3.78;2.40;;;;;;;14.67;80.49;95802.63;3574359;40;20056;-64
2021/07/02 02:29:46;;;;;;;2.90;2.70;;;;;;;14.57;82.42;95805.38;3583160;40;20044;-64
2021/07/02 02:32:14;;;;;;;3.20;2.90;;;;;;;14.45;83.08;95806.56;3566611;40;20337;-63
2021/07/02 02:34:42;;;;;;;3.10;2.90;;;;;;;14.41;82.93;95808.19;3566638;40;20053;-64
2021/07/02 02:37:10;;;;;;;3.50;3.20;;;;;;;14.33;83.10;95806.19;3578663;40;20045;-64
2021/07/02 02:39:39;;;;;;;3.72;2.72;;;;;;;14.33;82.42;95802.72;3565319;40;20028;-64
2021/07/02 02:42:07;;;;;;;3.08;2.58;;;;;;;14.41;81.41;95804.75;3584273;40;20055;-64
2021/07/02 02:44:35;;;;;;;5.15;2.45;;;;;;;14.46;81.71;95808.13;3574815;40;20056;-64
2021/07/02 02:47:04;;;;;;;3.78;2.97;;;;;;;14.41;82.66;95794.94;3583971;40;20301;-64
2021/07/02 02:49:32;;;;;;;2.67;2.50;;;;;;;14.38;82.63;95806.09;3574522;40;20044;-64
2021/07/02 02:52:00;;;;;;;4.00;2.20;;;;;;;14.36;82.45;95818.84;3574689;40;20048;-64
2021/07/02 02:54:27;;;;;;;2.60;2.40;;;;;;;14.37;82.14;95817.00;3583085;40;20056;-63
2021/07/02 02:57:04;;;;;;;2.65;2.45;;;;;;;14.33;81.21;95822.09;3573118;40;20041;-64
2021/07/02 02:59:38;;;;;;;2.55;2.35;;;;;;;14.32;81.75;95817.84;3582292;40;20389;-64
2021/07/02 03:02:09;;;;;;;2.25;2.15;;;;;;;14.28;80.48;95804.34;3582240;40;20458;-64
2021/07/02 03:04:39;;;;;;;3.33;3.03;;;;;;;14.29;80.09;95807.81;3569272;40;20074;-64
2021/07/02 03:07:06;;;;;;;2.80;2.50;;;;;;;14.33;80.27;95811.47;3574292;40;20530;-64
2021/07/02 03:09:40;;;;;;;4.28;2.60;;;;;;;14.30;79.96;95804.84;3574364;40;20068;-64
2021/07/02 03:12:08;;;;;;;3.13;2.75;;;;;;;14.33;80.17;95814.13;3574242;40;20052;-64
2021/07/02 03:14:36;;;;;;;3.40;2.50;;;;;;;14.36;79.20;95808.25;3578132;40;20511;-64
2021/07/02 03:17:04;;;;;;;3.67;2.42;;;;;;;14.32;79.51;95793.16;3583740;40;20048;-64
2021/07/02 03:19:38;;;;;;;2.17;2.00;;;;;;;14.32;78.95;95804.59;3581544;40;20056;-64
2021/07/02 03:22:07;;;;;;;2.53;2.33;;;;;;;14.33;79.87;95797.41;3574168;40;20334;-64
2021/07/02 03:24:38;;;;;;;2.53;2.33;;;;;;;14.28;80.48;95807.00;3582274;40;20299;-64
2021/07/02 03:27:07;;;;;;;2.78;2.58;;;;;;;14.29;80.37;95805.16;3582054;40;20402;-64
2021/07/02 03:29:39;;;;;;;3.05;2.35;;;;;;;14.29;79.85;95802.50;3583227;40;20054;-64
2021/07/02 03:32:09;;;;;;;3.47;2.65;;;;;;;14.29;79.22;95808.56;3583589;40;20070;-64
2021/07/02 03:34:44;;;;;;;3.13;2.92;;;;;;;14.32;79.25;95812.56;3565299;40;20040;-63
2021/07/02 03:37:16;;;;;;;3.20;3.00;;;;;;;14.32;79.11;95801.94;3574444;40;20053;-64
2021/07/02 03:39:45;;;;;;;3.83;3.47;;;;;;;14.32;79.00;95801.94;3582295;40;20049;-64
2021/07/02 03:42:15;;;;;;;4.75;2.00;;;;;;;14.40;78.60;95797.88;3574071;40;20394;-64
2021/07/02 03:44:43;;;;;;;2.58;2.40;;;;;;;14.44;77.90;95793.56;3581934;40;20105;-64
2021/07/02 03:47:13;;;;;;;5.18;2.88;;;;;;;14.42;78.14;95796.50;3573653;40;20044;-63
2021/07/02 03:49:43;;;;;;;2.42;2.22;;;;;;;14.47;76.73;95800.97;3574244;40;20044;-64
2021/07/02 03:52:12;;;;;;;2.53;2.20;;;;;;;14.47;77.25;95806.28;3583024;40;20048;-64
2021/07/02 03:54:40;;;;;;;3.50;2.65;;;;;;;14.51;77.13;95809.97;3583253;40;20045;-64
2021/07/02 03:57:11;;;;;;;3.63;2.38;;;;;;;14.54;75.94;95804.06;3574128;40;20090;-64
2021/07/02 03:59:50;;;;;;;10.30;3.03;;;;;;;14.59;76.28;95808.50;3572959;40;20109;-64
2021/07/02 04:02:19;;;;;;;2.38;2.17;;;;;;;14.61;75.78;95803.72;3568934;40;20049;-64
2021/07/02 04:04:47;;;;;;;17.45;5.93;;;;;;;14.65;76.14;95810.06;3582562;40;20044;-64
2021/07/02 04:07:16;;;;;;;16.40;4.07;;;;;;;14.72;74.96;95804.41;3573139;40;20081;-64
2021/07/02 04:09:44;;;;;;;2.13;1.95;;;;;;;14.76;74.65;95808.09;3574272;40;20048;-64
2021/07/02 04:12:13;;;;;;;2.90;1.92;;;;;;;14.83;74.37;95815.72;3573402;40;20051;-64
2021/07/02 04:14:41;;;;;;;3.00;2.80;;;;;;;14.89;74.21;95806.59;3583140;40;20052;-64
2021/07/02 04:17:09;;;;;;;2.35;2.15;;;;;;;14.97;74.28;95803.28;3581233;40;20052;-64
2021/07/02 04:19:37;;;;;;;2.63;2.42;;;;;;;15.06;73.69;95796.28;3583193;40;20062;-64
2021/07/02 04:22:06;;;;;;;4.55;2.10;;;;;;;15.18;73.07;95800.38;3573722;40;20051;-64
2021/07/02 04:24:35;;;;;;;3.67;2.42;;;;;;;15.31;72.52;95797.00;3582953;40;20052;-64
2021/07/02 04:27:14;;;;;;;1.98;1.77;;;;;;;15.43;72.93;95791.22;3582433;40;20048;-64
2021/07/02 04:29:43;;;;;;;4.43;2.25;;;;;;;15.58;72.38;95797.38;3583551;40;20720;-63
2021/07/02 04:32:12;;;;;;;2.45;2.25;;;;;;;15.75;72.07;95804.81;3567564;40;20052;-64
2021/07/02 04:34:40;;;;;;;4.22;2.05;;;;;;;15.92;71.73;95797.13;3578521;40;20044;-64
2021/07/02 04:37:08;;;;;;;2.22;2.05;;;;;;;16.12;70.87;95808.47;3574737;40;20062;-64
2021/07/02 04:39:36;;;;;;;2.78;2.50;;;;;;;16.40;69.40;95795.19;3574962;40;20045;-64
2021/07/02 04:42:05;;;;;;;4.07;2.50;;;;;;;16.71;68.83;95805.22;3574954;40;20398;-64
2021/07/02 04:44:35;;;;;;;3.22;2.42;;;;;;;16.86;67.44;95799.59;3575083;40;20052;-64
2021/07/02 04:47:04;;;;;;;3.25;2.28;;;;;;;17.04;67.93;95797.91;3574365;40;20046;-63
2021/07/02 04:49:33;;;;;;;11.57;3.45;;;;;;;17.16;66.99;95799.25;3575136;40;20059;-64
2021/07/02 04:52:02;;;;;;;6.45;3.17;;;;;;;17.06;66.30;95806.38;3582685;40;20046;-64
2021/07/02 04:54:29;;;;;;;3.33;3.00;;;;;;;17.12;66.34;95804.41;3579039;40;20375;-63
2021/07/02 04:56:58;;;;;;;6.15;3.35;;;;;;;17.11;66.28;95797.50;3566497;40;20070;-64
2021/07/02 04:59:30;;;;;;;3.47;3.15;;;;;;;17.17;65.85;95801.59;3584003;40;20051;-64
2021/07/02 05:01:59;;;;;;;3.22;2.83;;;;;;;17.10;66.05;95774.59;3574740;40;20073;-64
2021/07/02 05:04:27;;;;;;;4.13;3.22;;;;;;;17.37;65.47;95810.25;3584284;40;20121;-64
2021/07/02 05:06:55;;;;;;;4.30;2.65;;;;;;;17.54;65.07;95811.47;3578539;40;20459;-64
2021/07/02 05:09:23;;;;;;;3.15;2.80;;;;;;;17.52;64.66;95814.44;3584539;40;20088;-64
2021/07/02 05:11:51;;;;;;;3.83;2.60;;;;;;;17.69;64.07;95816.44;3574419;40;20076;-64
2021/07/02 05:14:19;;;;;;;5.40;3.90;;;;;;;17.81;64.04;95821.22;3569498;40;20052;-64
2021/07/02 05:16:46;;;;;;;4.25;2.58;;;;;;;17.91;64.67;95825.50;3582710;40;20790;-64
2021/07/02 05:19:14;;;;;;;3.20;2.40;;;;;;;18.18;62.95;95834.47;3573603;40;20044;-64
2021/07/02 05:21:42;;;;;;;3.13;2.83;;;;;;;18.30;63.83;95821.34;3565910;40;20243;-64
2021/07/02 05:24:10;;;;;;;4.95;3.22;;;;;;;18.50;61.97;95830.69;3584335;40;20076;-64
2021/07/02 05:26:38;;;;;;;4.65;2.70;;;;;;;18.41;62.40;95825.31;3575033;40;20040;-64
2021/07/02 05:29:06;;;;;;;4.38;2.58;;;;;;;18.50;62.84;95828.03;3575130;40;20312;-64
2021/07/02 05:31:33;;;;;;;6.32;3.78;;;;;;;18.73;61.44;95835.94;3574626;40;20044;-64
2021/07/02 05:34:01;;;;;;;6.78;3.53;;;;;;;18.80;60.61;95828.28;3584438;40;20049;-64
2021/07/02 05:36:29;;;;;;;4.93;3.13;;;;;;;18.97;60.77;95834.78;3583275;40;20048;-64
2021/07/02 05:38:57;;;;;;;5.45;3.25;;;;;;;19.02;61.22;95831.97;3574775;40;20044;-64
2021/07/02 05:41:24;;;;;;;6.22;2.75;;;;;;;19.08;61.43;95828.03;3584163;40;20049;-64
2021/07/02 05:43:52;;;;;;;2.97;2.78;;;;;;;19.13;60.96;95827.91;3567473;40;20051;-64
2021/07/02 05:46:19;;;;;;;3.83;3.13;;;;;;;19.17;60.88;95836.06;3575277;40;20304;-63
2021/07/02 05:48:48;;;;;;;3.40;3.10;;;;;;;19.07;60.68;95829.16;3575118;40;20072;-64
2021/07/02 05:51:16;;;;;;;7.25;3.95;;;;;;;19.03;61.39;95831.66;3583981;40;20432;-64
2021/07/02 05:53:44;;;;;;;4.07;3.58;;;;;;;18.99;61.45;95833.38;3583572;40;20060;-64
2021/07/02 05:56:12;;;;;;;4.68;4.07;;;;;;;18.92;61.11;95834.91;3574538;40;20036;-64
2021/07/02 05:58:40;;;;;;;5.55;3.95;;;;;;;18.89;61.65;95834.44;3564481;40;20044;-63
2021/07/02 06:01:10;;;;;;;5.57;4.05;;;;;;;18.87;62.00;95833.94;3574863;40;20072;-63
2021/07/02 06:03:37;;;;;;;5.45;4.28;;;;;;;18.84;61.25;95833.78;3574758;40;20044;-64
2021/07/02 06:06:20;;;;;;;5.07;4.07;;;;;;;18.85;61.31;95832.69;3583550;40;20045;-63
2021/07/02 06:08:53;;;;;;;7.90;5.20;;;;;;;18.98;61.32;95834.47;3574788;40;20074;-64
2021/07/02 06:11:20;;;;;;;6.68;5.00;;;;;;;19.03;61.05;95839.66;3583990;40;20056;-64
2021/07/02 06:13:48;;;;;;;6.68;4.13;;;;;;;18.99;60.39;95835.25;3583997;40;20048;-64
2021/07/02 06:16:16;;;;;;;6.63;4.93;;;;;;;19.12;61.25;95836.25;3573933;40;20055;-64
2021/07/02 06:18:44;;;;;;;6.47;4.53;;;;;;;19.36;60.03;95831.22;3583882;40;20056;-63
2021/07/02 06:21:12;;;;;;;5.63;5.13;;;;;;;19.44;58.89;95826.97;3565036;40;20040;-63
2021/07/02 06:23:40;;;;;;;4.38;4.07;;;;;;;19.58;59.39;95836.72;3565864;40;20058;-64
2021/07/02 06:26:08;;;;;;;7.43;5.55;;;;;;;19.72;60.04;95831.22;3574316;40;20062;-64
2021/07/02 06:28:37;;;;;;;5.13;4.30;;;;;;;20.11;58.42;95824.09;3574526;40;20054;-64
2021/07/02 06:31:05;;;;;;;4.63;4.28;;;;;;;20.35;57.24;95822.75;3574408;40;20332;-64
2021/07/02 06:33:33;;;;;;;5.32;4.93;;;;;;;20.50;55.72;95832.13;3574551;40;20040;-64
2021/07/02 06:36:02;;;;;;;6.15;5.65;;;;;;;20.65;53.46;95828.13;3569265;40;20114;-64
2021/07/02 06:38:30;;;;;;;7.22;6.35;;;;;;;20.64;54.20;95824.66;3574211;40;20041;-64
2021/07/02 06:40:57;;;;;;;7.15;5.63;;;;;;;20.61;54.94;95828.00;3583721;40;20075;-64
2021/07/02 06:43:25;;;;;;;6.47;5.88;;;;;;;20.70;54.64;95811.88;3565502;40;20219;-63
2021/07/02 06:45:53;;;;;;;5.85;5.30;;;;;;;21.06;53.20;95832.03;3573344;40;20052;-64
2021/07/02 06:48:20;;;;;;;6.05;5.55;;;;;;;21.37;52.44;95830.09;3583698;40;20406;-64
2021/07/02 06:50:48;;;;;;;5.28;4.88;;;;;;;21.53;51.90;95827.59;3583156;40;20044;-64
2021/07/02 06:53:17;;;;;;;6.10;5.57;;;;;;;21.43;51.92;95826.06;3574072;40;20041;-64
2021/07/02 06:55:45;;;;;;;5.82;5.43;;;;;;;21.48;50.64;95823.22;3574291;40;20056;-64
2021/07/02 06:58:12;;;;;;;6.13;5.63;;;;;;;21.42;51.58;95827.19;3583582;40;20282;-64
2021/07/02 07:00:40;;;;;;;5.55;5.15;;;;;;;21.66;50.80;95824.66;3583385;40;20043;-64
2021/07/02 07:03:08;;;;;;;5.72;5.18;;;;;;;21.84;50.55;95821.03;3581962;40;20460;-64
2021/07/02 07:05:38;;;;;;;5.65;5.15;;;;;;;21.95;50.14;95822.97;3574298;40;20062;-64
2021/07/02 07:08:08;;;;;;;5.90;5.25;;;;;;;22.02;50.37;95830.47;3574595;40;20617;-65
2021/07/02 07:10:36;;;;;;;5.07;4.68;;;;;;;22.15;49.39;95820.56;3574578;40;20063;-65
2021/07/02 07:13:05;;;;;;;5.30;4.88;;;;;;;22.31;49.18;95823.38;3574492;40;20516;-65
2021/07/02 07:15:35;;;;;;;5.38;4.88;;;;;;;22.25;48.96;95822.00;3574511;40;20474;-65
2021/07/02 07:18:02;;;;;;;4.88;4.43;;;;;;;22.35;49.25;95826.94;3574508;40;20286;-65
2021/07/02 07:20:31;;;;;;;5.88;5.28;;;;;;;22.36;48.71;95822.38;3561201;40;20055;-63
2021/07/02 07:22:59;;;;;;;5.47;5.07;;;;;;;22.29;47.91;95825.63;3583795;40;20135;-63
2021/07/02 07:25:26;;;;;;;5.35;4.90;;;;;;;22.26;48.75;95820.91;3583731;40;20371;-64
2021/07/02 07:27:54;;;;;;;7.88;5.32;;;;;;;22.15;48.09;95819.75;3583280;40;20040;-64
2021/07/02 07:30:22;;;;;;;8.77;5.30;;;;;;;22.21;48.89;95821.13;3557886;40;20058;-64
2021/07/02 07:32:52;;;;;;;4.80;4.43;;;;;;;22.56;46.49;95823.44;3583532;40;20052;-64
2021/07/02 07:35:23;;;;;;;5.00;4.65;;;;;;;22.51;47.03;95827.13;3569473;40;20048;-64
2021/07/02 07:38:00;;;;;;;5.00;4.60;;;;;;;22.36;48.22;95830.44;3582802;40;20044;-63
2021/07/02 07:40:30;;;;;;;5.25;4.85;;;;;;;22.23;47.70;95825.03;3583830;40;20688;-64
2021/07/02 07:42:58;;;;;;;4.90;4.60;;;;;;;22.20;48.06;95828.38;3583429;40;20048;-64
2021/07/02 07:45:26;;;;;;;5.18;4.68;;;;;;;22.27;48.77;95828.66;3573846;40;20044;-64
2021/07/02 07:47:54;;;;;;;5.47;4.75;;;;;;;22.35;47.26;95823.50;3583631;40;20041;-64
2021/07/02 07:50:23;;;;;;;4.68;4.35;;;;;;;22.42;47.50;95826.44;3582379;40;20047;-64
2021/07/02 07:53:10;;;;;;;6.00;5.60;;;;;;;22.44;47.99;95831.47;3581119;40;20044;-65
2021/07/02 07:55:38;;;;;;;6.03;5.35;;;;;;;22.31;47.11;95827.94;3579756;40;20056;-65
2021/07/02 07:58:06;;;;;;;5.60;5.20;;;;;;;22.30;48.18;95832.56;3571599;40;20048;-65
2021/07/02 08:00:33;;;;;;;6.15;5.65;;;;;;;22.23;48.80;95830.41;3565448;40;20044;-64
2021/07/02 08:03:02;;;;;;;5.38;4.93;;;;;;;22.17;48.27;95839.78;3583466;40;20818;-63
2021/07/02 08:05:29;;;;;;;6.30;4.65;;;;;;;22.04;47.69;95833.63;3566858;40;20062;-64
2021/07/02 08:07:57;;;;;;;5.57;5.18;;;;;;;22.22;47.14;95838.78;3575740;40;20045;-64
2021/07/02 08:10:26;;;;;;;6.20;5.70;;;;;;;22.16;47.31;95842.81;3575811;40;20044;-64
2021/07/02 08:12:54;;;;;;;5.10;4.70;;;;;;;21.89;48.49;95851.16;3585631;40;20049;-64
2021/07/02 08:15:21;;;;;;;5.57;5.05;;;;;;;21.80;48.74;95842.38;3575697;40;20047;-64
2021/07/02 08:17:49;;;;;;;6.45;4.72;;;;;;;21.83;48.99;95838.25;3584833;40;20122;-64
2021/07/02 08:20:17;;;;;;;6.97;5.32;;;;;;;21.70;48.10;95838.22;3585708;40;20088;-64
2021/07/02 08:22:44;;;;;;;8.45;5.80;;;;;;;21.98;48.24;95829.56;3583972;40;20055;-65
2021/07/02 08:25:13;;;;;;;6.72;6.18;;;;;;;22.19;48.24;95834.09;3583910;40;20045;-65
2021/07/02 08:30:27;;;;;;;6.65;5.82;;;;;;;22.21;47.12;95834.56;3585032;40;20055;-64
2021/07/02 08:32:55;;;;;;;5.20;4.80;;;;;;;22.64;47.40;95833.28;3578716;40;20056;-65
2021/07/02 08:35:22;;;;;;;5.82;5.43;;;;;;;22.67;46.99;95824.56;3584450;40;20048;-65
2021/07/02 08:37:56;;;;;;;5.35;4.85;;;;;;;22.72;47.27;95827.00;3584316;40;20060;-65
2021/07/02 08:40:24;;;;;;;5.47;4.97;;;;;;;22.75;46.17;95830.13;3575216;40;20044;-65
2021/07/02 08:42:52;;;;;;;5.57;5.07;;;;;;;22.77;47.06;95822.53;3583599;40;20051;-65
2021/07/02 08:45:19;;;;;;;9.18;6.10;;;;;;;22.75;47.00;95822.06;3583812;40;20055;-65
2021/07/02 08:47:47;;;;;;;6.38;5.82;;;;;;;23.01;47.42;95827.88;3581526;40;20100;-65
2021/07/02 08:50:15;;;;;;;8.35;5.90;;;;;;;23.19;46.02;95825.75;3574604;40;20047;-65
2021/07/02 08:52:43;;;;;;;5.63;5.13;;;;;;;23.18;46.05;95826.06;3583873;40;20043;-65
2021/07/02 08:55:12;;;;;;;5.25;4.75;;;;;;;23.36;45.27;95826.63;3574670;40;20047;-65
2021/07/02 08:57:41;;;;;;;5.25;4.85;;;;;;;23.56;45.10;95821.38;3584520;40;20040;-65
2021/07/02 09:00:10;;;;;;;7.18;5.15;;;;;;;23.76;44.33;95814.25;3572220;40;20064;-65
2021/07/02 09:02:40;;;;;;;4.50;4.20;;;;;;;23.87;43.94;95812.59;3566225;40;20053;-65
2021/07/02 09:05:30;;;;;;;5.47;4.97;;;;;;;23.93;43.68;95823.91;3583568;40;20316;-65
2021/07/02 09:07:58;;;;;;;5.55;4.20;;;;;;;23.82;43.83;95826.31;3567118;40;20051;-65
2021/07/02 09:10:36;;;;;;;6.93;5.82;;;;;;;23.37;45.12;95827.38;3584247;40;20069;-65
2021/07/02 09:13:05;;;;;;;7.30;5.97;;;;;;;23.22;44.96;95826.19;3584125;40;20041;-65
2021/07/02 09:15:45;;;;;;;6.57;5.70;;;;;;;22.86;46.80;95818.59;3566351;40;20041;-65
2021/07/02 09:18:14;;;;;;;8.38;5.57;;;;;;;22.82;47.27;95827.69;3574444;40;20047;-65
2021/07/02 09:20:46;;;;;;;5.72;5.22;;;;;;;22.77;46.40;95823.28;3573855;40;20064;-65
2021/07/02 09:23:16;;;;;;;8.48;5.60;;;;;;;22.71;47.28;95830.81;3584390;40;20071;-65
2021/07/02 09:25:51;;;;;;;7.25;6.22;;;;;;;22.45;47.90;95827.69;3566735;40;20040;-65
2021/07/02 09:28:26;;;;;;;6.40;5.90;;;;;;;22.25;48.02;95838.13;3584688;40;20048;-65
2021/07/02 09:30:54;;;;;;;5.93;5.47;;;;;;;21.58;50.91;95838.13;3578520;40;20048;-65
2021/07/02 09:33:24;;;;;;;6.88;6.22;;;;;;;21.46;50.94;95839.66;3574425;40;20506;-65
2021/07/02 09:35:55;;;;;;;5.78;5.28;;;;;;;21.08;51.15;95851.28;3584054;40;20049;-65
2021/07/02 09:38:40;;;;;;;6.80;6.20;;;;;;;20.54;53.10;95846.47;3575141;40;20381;-65
2021/07/02 09:41:10;;;;;;;6.60;5.43;;;;;;;19.96;54.92;95857.50;3584385;40;20051;-65
2021/07/02 09:43:40;;;;;;;6.07;4.70;;;;;;;19.73;55.55;95838.91;3583707;40;20084;-65
2021/07/02 09:46:08;;;;;;;7.40;5.97;;;;;;;19.59;56.45;95849.00;3584047;40;20056;-63
2021/07/02 09:48:42;;;;;;;5.45;5.03;;;;;;;19.18;58.20;95845.66;3575028;40;20402;-63
2021/07/02 09:51:10;;;;;;;5.13;4.63;;;;;;;18.99;59.57;95840.59;3582497;40;20063;-63
2021/07/02 09:53:40;;;;;;;7.10;3.67;;;;;;;18.75;59.71;95839.91;3582003;40;20052;-63
2021/07/02 09:56:17;;;;;;;3.80;3.50;;;;;;;18.77;59.72;95830.78;3574896;40;20114;-64
2021/07/02 09:58:49;;;;;;;4.45;4.05;;;;;;;18.51;60.96;95847.53;3583442;40;20070;-64
2021/07/02 10:01:25;;;;;;;4.30;4.00;;;;;;;18.49;62.00;95836.34;3573862;40;20078;-64
2021/07/02 10:03:54;;;;;;;4.78;4.38;;;;;;;18.39;63.20;95843.56;3570237;40;20074;-64
2021/07/02 10:06:27;;;;;;;3.95;3.65;;;;;;;18.29;65.83;95859.81;3574578;40;20048;-64
2021/07/02 10:08:55;;;;;;;4.10;3.80;;;;;;;18.09;65.59;95861.91;3582796;40;20409;-66
2021/07/02 10:11:23;;;;;;;5.25;4.85;;;;;;;17.72;66.85;95858.50;3584300;40;20058;-66
2021/07/02 10:13:51;;;;;;;3.67;3.38;;;;;;;17.66;67.40;95865.84;3565968;40;20050;-65
2021/07/02 10:16:20;;;;;;;3.88;3.58;;;;;;;17.71;67.69;95859.59;3584111;40;20348;-65
2021/07/02 10:18:47;;;;;;;2.92;2.72;;;;;;;17.66;66.47;95859.72;3574888;40;20059;-64
2021/07/02 10:21:18;;;;;;;4.10;3.45;;;;;;;17.61;67.54;95860.63;3569324;40;20056;-65
2021/07/02 10:23:49;;;;;;;3.65;2.78;;;;;;;17.57;67.83;95861.53;3578248;40;20044;-65
2021/07/02 10:26:21;;;;;;;2.30;2.20;;;;;;;17.50;65.71;95868.06;3583715;40;20043;-64
2021/07/02 10:28:49;;;;;;;2.72;2.53;;;;;;;17.52;67.33;95870.44;3574151;40;20041;-65
2021/07/02 10:31:17;;;;;;;3.58;2.92;;;;;;;17.51;67.08;95864.31;3574155;40;20056;-64
2021/07/02 10:33:48;;;;;;;3.08;2.65;;;;;;;17.49;67.22;95865.69;3574255;40;20078;-64
2021/07/02 10:36:17;;;;;;;2.78;2.58;;;;;;;17.55;65.88;95867.16;3578174;40;20479;-64
2021/07/02 10:38:50;;;;;;;2.92;2.72;;;;;;;17.64;65.67;95870.69;3574574;40;20414;-64
2021/07/02 10:41:25;;;;;;;2.25;2.10;;;;;;;17.69;65.73;95869.78;3582833;40;20053;-64
2021/07/02 10:44:13;;;;;;;2.40;2.20;;;;;;;17.94;64.30;95870.25;3574309;40;20089;-64
2021/07/02 10:46:59;;;;;;;3.58;3.28;;;;;;;18.20;67.31;95872.34;3583988;40;20048;-64
2021/07/02 10:49:38;;;;;;;3.70;3.50;;;;;;;18.50;65.33;95870.00;3583192;40;20052;-64
2021/07/02 10:52:25;;;;;;;3.42;3.17;;;;;;;18.83;65.62;95874.97;3583732;40;20115;-64
2021/07/02 10:54:57;;;;;;;3.95;3.20;;;;;;;19.11;65.64;95861.41;3583847;40;20051;-65
2021/07/02 10:57:26;;;;;;;3.17;2.97;;;;;;;19.41;64.13;95859.69;3574540;40;20048;-63
2021/07/02 10:59:54;;;;;;;3.88;3.58;;;;;;;19.69;62.87;95862.06;3582335;40;20032;-63
2021/07/02 11:02:23;;;;;;;3.42;3.22;;;;;;;19.99;62.35;95858.75;3561084;40;20074;-63
2021/07/02 11:04:53;;;;;;;2.35;2.25;;;;;;;20.35;59.76;95858.34;3574297;40;20071;-63
2021/07/02 11:07:27;;;;;;;2.90;2.63;;;;;;;20.76;59.13;95855.38;3583309;40;20051;-64
2021/07/02 11:09:57;;;;;;;3.20;2.97;;;;;;;21.35;58.00;95860.72;3583424;40;20252;-64
2021/07/02 11:12:26;;;;;;;2.88;1.80;;;;;;;21.55;55.21;95854.88;3583902;40;20171;-64
2021/07/02 11:14:53;;;;;;;2.10;1.90;;;;;;;21.67;55.53;95854.97;3583594;40;20052;-63
2021/07/02 11:17:38;;;;;;;4.30;1.88;;;;;;;21.99;53.91;95844.56;3584064;40;20348;-64
2021/07/02 11:20:07;;;;;;;2.05;1.90;;;;;;;22.14;52.54;95848.53;3574955;40;20059;-66
2021/07/02 11:22:45;;;;;;;2.00;1.90;;;;;;;22.24;52.36;95855.38;3566012;40;20306;-65
2021/07/02 11:25:34;;;;;;;2.60;2.10;;;;;;;22.33;52.13;95850.72;3583363;40;20086;-64
2021/07/02 11:28:07;;;;;;;2.30;1.83;;;;;;;22.49;50.81;95839.31;3583320;40;20059;-63
2021/07/02 11:30:37;;;;;;;2.08;1.88;;;;;;;22.53;51.37;95835.63;3574214;40;20562;-64
2021/07/02 11:33:09;;;;;;;1.70;1.60;;;;;;;22.59;51.34;95841.56;3583662;40;20066;-63
2021/07/02 11:36:07;;;;;;;2.95;1.65;;;;;;;22.84;50.08;95836.19;3582453;40;20052;-63
2021/07/02 11:38:55;;;;;;;2.05;1.95;;;;;;;22.95;49.35;95848.09;3578145;40;20048;-64
2021/07/02 11:41:26;;;;;;;1.55;1.45;;;;;;;23.15;49.32;95845.56;3563822;40;20042;-64
2021/07/02 11:43:56;;;;;;;1.90;1.80;;;;;;;23.30;49.47;95841.41;3583862;40;20085;-64
2021/07/02 11:46:24;;;;;;;2.60;2.40;;;;;;;23.40;49.32;95837.47;3583556;40;20052;-63
2021/07/02 11:48:54;;;;;;;2.08;1.98;;;;;;;23.40;48.40;95832.09;3582225;40;20056;-64